sensor_id;sensor_type;location;lat;lon;timestamp;temperature;humidity
7129;DHT22;3606;52.930;8.644;2023-02-02T00:01:37;6.00;1.00
7129;DHT22;3606;52.930;8.644;2023-02-02T00:04:03;5.90;1.00
7129;DHT22;3606;52.930;8.644;2023-02-02T00:06:30;5.80;14.60
7129;DHT22;3606;52.930;8.644;2023-02-02T00:08:58;5.80;1.00
7129;DHT22;3606;52.930;8.644;2023-02-02T00:11:24;6.00;99.90
7129;DHT22;3606;52.930;8.644;2023-02-02T00:13:50;5.90;99.90
7129;DHT22;3606;52.930;8.644;2023-02-02T00:18:51;6.00;1.00
7129;DHT22;3606;52.930;8.644;2023-02-02T00:21:17;5.90;99.90
7129;DHT22;3606;52.930;8.644;2023-02-02T00:23:42;6.00;56.50
7129;DHT22;3606;52.930;8.644;2023-02-02T00:26:09;6.00;20.80
7129;DHT22;3606;52.930;8.644;2023-02-02T00:28:35;6.10;8.70
7129;DHT22;3606;52.930;8.644;2023-02-02T00:31:00;6.10;1.00
7129;DHT22;3606;52.930;8.644;2023-02-02T00:33:26;6.20;1.00
7129;DHT22;3606;52.930;8.644;2023-02-02T00:35:52;6.20;99.90
7129;DHT22;3606;52.930;8.644;2023-02-02T00:38:18;6.20;99.90
7129;DHT22;3606;52.930;8.644;2023-02-02T00:40:44;6.20;1.00
7129;DHT22;3606;52.930;8.644;2023-02-02T00:43:10;6.10;1.00
7129;DHT22;3606;52.930;8.644;2023-02-02T00:45:37;6.10;34.00
7129;DHT22;3606;52.930;8.644;2023-02-02T00:48:03;6.10;1.00
7129;DHT22;3606;52.930;8.644;2023-02-02T00:50:29;6.00;99.90
7129;DHT22;3606;52.930;8.644;2023-02-02T00:52:55;5.90;99.90
7129;DHT22;3606;52.930;8.644;2023-02-02T00:55:24;5.80;99.90
7129;DHT22;3606;52.930;8.644;2023-02-02T00:57:50;5.70;1.00
7129;DHT22;3606;52.930;8.644;2023-02-02T01:00:21;5.70;1.00
7129;DHT22;3606;52.930;8.644;2023-02-02T01:02:48;5.60;1.00
7129;DHT22;3606;52.930;8.644;2023-02-02T01:05:15;5.60;1.00
7129;DHT22;3606;52.930;8.644;2023-02-02T01:07:41;5.60;99.90
7129;DHT22;3606;52.930;8.644;2023-02-02T01:10:11;5.60;99.90
7129;DHT22;3606;52.930;8.644;2023-02-02T01:12:37;5.70;1.00
7129;DHT22;3606;52.930;8.644;2023-02-02T01:15:03;5.80;1.00
7129;DHT22;3606;52.930;8.644;2023-02-02T01:17:29;5.90;1.00
7129;DHT22;3606;52.930;8.644;2023-02-02T01:19:54;5.80;1.00
7129;DHT22;3606;52.930;8.644;2023-02-02T01:22:20;5.80;2.70
7129;DHT22;3606;52.930;8.644;2023-02-02T01:24:45;5.90;1.00
7129;DHT22;3606;52.930;8.644;2023-02-02T01:27:11;5.90;99.90
7129;DHT22;3606;52.930;8.644;2023-02-02T01:29:36;5.70;99.90
7129;DHT22;3606;52.930;8.644;2023-02-02T01:32:02;5.60;99.90
7129;DHT22;3606;52.930;8.644;2023-02-02T01:34:28;5.50;99.90
7129;DHT22;3606;52.930;8.644;2023-02-02T01:36:53;5.40;99.90
7129;DHT22;3606;52.930;8.644;2023-02-02T01:39:19;5.40;99.90
7129;DHT22;3606;52.930;8.644;2023-02-02T01:41:44;5.30;1.00
7129;DHT22;3606;52.930;8.644;2023-02-02T01:47:13;5.20;1.00
7129;DHT22;3606;52.930;8.644;2023-02-02T01:49:40;5.00;1.00
7129;DHT22;3606;52.930;8.644;2023-02-02T01:52:07;4.90;99.90
7129;DHT22;3606;52.930;8.644;2023-02-02T01:54:37;4.90;1.00
7129;DHT22;3606;52.930;8.644;2023-02-02T01:57:29;4.90;99.90
7129;DHT22;3606;52.930;8.644;2023-02-02T01:59:56;4.90;1.00
7129;DHT22;3606;52.930;8.644;2023-02-02T02:02:24;4.80;1.00
7129;DHT22;3606;52.930;8.644;2023-02-02T02:04:53;4.70;99.90
7129;DHT22;3606;52.930;8.644;2023-02-02T02:07:20;4.80;76.60
7129;DHT22;3606;52.930;8.644;2023-02-02T02:09:46;4.80;99.90
7129;DHT22;3606;52.930;8.644;2023-02-02T02:12:12;4.80;1.00
7129;DHT22;3606;52.930;8.644;2023-02-02T02:14:44;4.80;1.00
7129;DHT22;3606;52.930;8.644;2023-02-02T02:37:27;4.70;99.90
7129;DHT22;3606;52.930;8.644;2023-02-02T02:39:58;4.70;99.90
7129;DHT22;3606;52.930;8.644;2023-02-02T02:42:30;4.70;99.90
7129;DHT22;3606;52.930;8.644;2023-02-02T02:45:00;4.70;1.00
7129;DHT22;3606;52.930;8.644;2023-02-02T02:47:28;4.80;99.90
7129;DHT22;3606;52.930;8.644;2023-02-02T02:49:54;5.00;1.00
7129;DHT22;3606;52.930;8.644;2023-02-02T02:52:20;5.00;99.90
7129;DHT22;3606;52.930;8.644;2023-02-02T02:54:49;4.90;83.90
7129;DHT22;3606;52.930;8.644;2023-02-02T03:03:00;4.80;1.00
7129;DHT22;3606;52.930;8.644;2023-02-02T03:05:42;4.70;9.60
7129;DHT22;3606;52.930;8.644;2023-02-02T03:10:44;4.60;99.90
7129;DHT22;3606;52.930;8.644;2023-02-02T03:13:12;4.60;99.90
7129;DHT22;3606;52.930;8.644;2023-02-02T03:15:45;4.60;99.90
7129;DHT22;3606;52.930;8.644;2023-02-02T03:18:11;4.60;99.90
7129;DHT22;3606;52.930;8.644;2023-02-02T03:20:38;4.60;99.90
7129;DHT22;3606;52.930;8.644;2023-02-02T03:23:03;4.60;99.90
7129;DHT22;3606;52.930;8.644;2023-02-02T03:25:29;4.60;99.90
7129;DHT22;3606;52.930;8.644;2023-02-02T03:27:54;4.60;99.90
7129;DHT22;3606;52.930;8.644;2023-02-02T03:30:21;4.50;99.90
7129;DHT22;3606;52.930;8.644;2023-02-02T03:32:47;4.50;99.90
7129;DHT22;3606;52.930;8.644;2023-02-02T03:35:13;4.50;99.90
7129;DHT22;3606;52.930;8.644;2023-02-02T03:37:39;4.60;99.90
7129;DHT22;3606;52.930;8.644;2023-02-02T03:40:05;4.50;99.90
7129;DHT22;3606;52.930;8.644;2023-02-02T03:42:31;4.50;99.90
7129;DHT22;3606;52.930;8.644;2023-02-02T03:44:57;4.50;99.90
7129;DHT22;3606;52.930;8.644;2023-02-02T03:47:22;4.50;99.90
7129;DHT22;3606;52.930;8.644;2023-02-02T03:49:48;4.50;99.90
7129;DHT22;3606;52.930;8.644;2023-02-02T03:52:14;4.50;99.90
7129;DHT22;3606;52.930;8.644;2023-02-02T03:54:39;4.40;99.90
7129;DHT22;3606;52.930;8.644;2023-02-02T03:57:05;4.40;99.90
7129;DHT22;3606;52.930;8.644;2023-02-02T03:59:30;4.30;99.90
7129;DHT22;3606;52.930;8.644;2023-02-02T04:01:56;4.30;99.90
7129;DHT22;3606;52.930;8.644;2023-02-02T04:04:21;4.40;99.90
7129;DHT22;3606;52.930;8.644;2023-02-02T04:06:47;4.50;99.90
7129;DHT22;3606;52.930;8.644;2023-02-02T04:09:12;4.60;99.90
7129;DHT22;3606;52.930;8.644;2023-02-02T04:11:38;4.60;99.90
7129;DHT22;3606;52.930;8.644;2023-02-02T04:14:03;4.50;99.90
7129;DHT22;3606;52.930;8.644;2023-02-02T04:16:29;4.40;99.90
7129;DHT22;3606;52.930;8.644;2023-02-02T04:18:59;4.30;99.90
7129;DHT22;3606;52.930;8.644;2023-02-02T04:21:24;4.30;99.90
7129;DHT22;3606;52.930;8.644;2023-02-02T04:23:50;4.50;99.90
7129;DHT22;3606;52.930;8.644;2023-02-02T04:26:15;4.40;99.90
7129;DHT22;3606;52.930;8.644;2023-02-02T04:28:41;4.40;99.90
7129;DHT22;3606;52.930;8.644;2023-02-02T04:31:06;4.40;99.90
7129;DHT22;3606;52.930;8.644;2023-02-02T04:33:33;4.40;99.90
7129;DHT22;3606;52.930;8.644;2023-02-02T04:35:58;4.50;99.90
7129;DHT22;3606;52.930;8.644;2023-02-02T04:38:24;4.50;99.90
7129;DHT22;3606;52.930;8.644;2023-02-02T04:40:49;4.50;99.90
7129;DHT22;3606;52.930;8.644;2023-02-02T04:43:15;4.50;99.90
7129;DHT22;3606;52.930;8.644;2023-02-02T04:45:41;4.40;99.90
7129;DHT22;3606;52.930;8.644;2023-02-02T04:48:07;4.40;99.90
7129;DHT22;3606;52.930;8.644;2023-02-02T04:50:32;4.40;99.90
7129;DHT22;3606;52.930;8.644;2023-02-02T04:52:58;4.40;99.90
7129;DHT22;3606;52.930;8.644;2023-02-02T04:55:24;4.30;99.90
7129;DHT22;3606;52.930;8.644;2023-02-02T04:57:49;4.40;99.90
7129;DHT22;3606;52.930;8.644;2023-02-02T05:00:15;4.40;99.90
7129;DHT22;3606;52.930;8.644;2023-02-02T05:02:41;4.30;99.90
7129;DHT22;3606;52.930;8.644;2023-02-02T05:05:10;4.30;99.90
7129;DHT22;3606;52.930;8.644;2023-02-02T05:07:36;4.20;99.90
7129;DHT22;3606;52.930;8.644;2023-02-02T05:10:03;4.30;99.90
7129;DHT22;3606;52.930;8.644;2023-02-02T05:12:29;4.30;99.90
7129;DHT22;3606;52.930;8.644;2023-02-02T05:14:54;4.30;99.90
7129;DHT22;3606;52.930;8.644;2023-02-02T05:17:20;4.40;99.90
7129;DHT22;3606;52.930;8.644;2023-02-02T05:19:46;4.30;99.90
7129;DHT22;3606;52.930;8.644;2023-02-02T05:22:11;4.40;99.90
7129;DHT22;3606;52.930;8.644;2023-02-02T05:24:37;4.40;99.90
7129;DHT22;3606;52.930;8.644;2023-02-02T05:27:03;4.40;99.90
7129;DHT22;3606;52.930;8.644;2023-02-02T05:29:29;4.40;99.90
7129;DHT22;3606;52.930;8.644;2023-02-02T05:31:56;4.50;99.90
7129;DHT22;3606;52.930;8.644;2023-02-02T05:34:22;4.50;99.90
7129;DHT22;3606;52.930;8.644;2023-02-02T05:36:48;4.50;99.90
7129;DHT22;3606;52.930;8.644;2023-02-02T05:39:13;4.50;99.90
7129;DHT22;3606;52.930;8.644;2023-02-02T05:41:39;4.50;99.90
7129;DHT22;3606;52.930;8.644;2023-02-02T05:44:04;4.60;99.90
7129;DHT22;3606;52.930;8.644;2023-02-02T05:46:30;4.60;99.90
7129;DHT22;3606;52.930;8.644;2023-02-02T05:48:56;4.60;99.90
7129;DHT22;3606;52.930;8.644;2023-02-02T05:54:18;4.60;99.90
7129;DHT22;3606;52.930;8.644;2023-02-02T05:56:49;4.60;99.90
7129;DHT22;3606;52.930;8.644;2023-02-02T05:59:15;4.60;99.90
7129;DHT22;3606;52.930;8.644;2023-02-02T06:01:42;4.60;99.90
7129;DHT22;3606;52.930;8.644;2023-02-02T06:04:08;4.50;99.90
7129;DHT22;3606;52.930;8.644;2023-02-02T06:06:33;4.60;99.90
7129;DHT22;3606;52.930;8.644;2023-02-02T06:09:00;4.60;99.90
7129;DHT22;3606;52.930;8.644;2023-02-02T06:11:26;4.70;99.90
7129;DHT22;3606;52.930;8.644;2023-02-02T06:13:52;4.60;99.90
7129;DHT22;3606;52.930;8.644;2023-02-02T06:16:17;4.70;99.90
7129;DHT22;3606;52.930;8.644;2023-02-02T06:18:43;4.70;99.90
7129;DHT22;3606;52.930;8.644;2023-02-02T06:21:10;4.80;99.90
7129;DHT22;3606;52.930;8.644;2023-02-02T06:23:36;4.70;99.90
7129;DHT22;3606;52.930;8.644;2023-02-02T06:26:02;4.60;99.90
7129;DHT22;3606;52.930;8.644;2023-02-02T06:28:31;4.60;99.90
7129;DHT22;3606;52.930;8.644;2023-02-02T06:31:03;4.60;99.90
7129;DHT22;3606;52.930;8.644;2023-02-02T06:33:29;4.70;99.90
7129;DHT22;3606;52.930;8.644;2023-02-02T06:35:58;4.70;99.90
7129;DHT22;3606;52.930;8.644;2023-02-02T06:38:25;4.70;99.90
7129;DHT22;3606;52.930;8.644;2023-02-02T06:40:50;4.70;99.90
7129;DHT22;3606;52.930;8.644;2023-02-02T06:43:16;4.70;99.90
7129;DHT22;3606;52.930;8.644;2023-02-02T06:45:41;4.70;99.90
7129;DHT22;3606;52.930;8.644;2023-02-02T06:48:07;4.80;99.90
7129;DHT22;3606;52.930;8.644;2023-02-02T06:50:36;4.90;99.90
7129;DHT22;3606;52.930;8.644;2023-02-02T06:53:02;4.90;99.90
7129;DHT22;3606;52.930;8.644;2023-02-02T06:55:28;4.90;99.90
7129;DHT22;3606;52.930;8.644;2023-02-02T06:57:58;5.00;99.90
7129;DHT22;3606;52.930;8.644;2023-02-02T07:00:24;5.00;99.90
7129;DHT22;3606;52.930;8.644;2023-02-02T07:02:50;5.00;99.90
7129;DHT22;3606;52.930;8.644;2023-02-02T07:05:16;5.00;99.90
7129;DHT22;3606;52.930;8.644;2023-02-02T07:07:44;5.00;99.90
7129;DHT22;3606;52.930;8.644;2023-02-02T07:10:10;5.00;99.90
7129;DHT22;3606;52.930;8.644;2023-02-02T07:12:36;5.00;99.90
7129;DHT22;3606;52.930;8.644;2023-02-02T07:15:02;5.00;99.90
7129;DHT22;3606;52.930;8.644;2023-02-02T07:17:28;5.00;99.90
7129;DHT22;3606;52.930;8.644;2023-02-02T07:19:54;4.90;99.90
7129;DHT22;3606;52.930;8.644;2023-02-02T07:22:19;4.90;99.90
7129;DHT22;3606;52.930;8.644;2023-02-02T07:24:45;4.90;99.90
7129;DHT22;3606;52.930;8.644;2023-02-02T07:27:11;5.00;99.90
7129;DHT22;3606;52.930;8.644;2023-02-02T07:29:36;5.00;99.90
7129;DHT22;3606;52.930;8.644;2023-02-02T07:32:02;5.10;99.90
7129;DHT22;3606;52.930;8.644;2023-02-02T07:34:27;5.10;99.90
7129;DHT22;3606;52.930;8.644;2023-02-02T07:36:53;5.00;99.90
7129;DHT22;3606;52.930;8.644;2023-02-02T07:39:18;5.10;99.90
7129;DHT22;3606;52.930;8.644;2023-02-02T07:41:44;5.10;99.90
7129;DHT22;3606;52.930;8.644;2023-02-02T07:44:12;5.20;99.90
7129;DHT22;3606;52.930;8.644;2023-02-02T07:46:42;5.20;99.90
7129;DHT22;3606;52.930;8.644;2023-02-02T07:49:12;5.20;99.90
7129;DHT22;3606;52.930;8.644;2023-02-02T07:51:39;5.20;99.90
7129;DHT22;3606;52.930;8.644;2023-02-02T07:54:05;5.20;99.90
7129;DHT22;3606;52.930;8.644;2023-02-02T07:56:30;5.30;99.90
7129;DHT22;3606;52.930;8.644;2023-02-02T07:58:56;5.40;99.90
7129;DHT22;3606;52.930;8.644;2023-02-02T08:01:23;5.40;99.90
7129;DHT22;3606;52.930;8.644;2023-02-02T08:03:51;5.50;99.90
7129;DHT22;3606;52.930;8.644;2023-02-02T08:06:31;5.50;99.90
7129;DHT22;3606;52.930;8.644;2023-02-02T08:08:58;5.50;99.90
7129;DHT22;3606;52.930;8.644;2023-02-02T08:11:25;5.50;99.90
7129;DHT22;3606;52.930;8.644;2023-02-02T08:13:53;5.60;99.90
7129;DHT22;3606;52.930;8.644;2023-02-02T08:16:21;5.60;99.90
7129;DHT22;3606;52.930;8.644;2023-02-02T08:18:47;5.70;99.90
7129;DHT22;3606;52.930;8.644;2023-02-02T08:21:13;5.70;99.90
7129;DHT22;3606;52.930;8.644;2023-02-02T08:23:39;5.80;99.90
7129;DHT22;3606;52.930;8.644;2023-02-02T08:26:14;5.80;99.90
7129;DHT22;3606;52.930;8.644;2023-02-02T08:28:41;5.90;99.90
7129;DHT22;3606;52.930;8.644;2023-02-02T08:33:35;5.80;99.90
7129;DHT22;3606;52.930;8.644;2023-02-02T08:36:01;5.90;99.90
7129;DHT22;3606;52.930;8.644;2023-02-02T08:38:27;5.90;99.90
7129;DHT22;3606;52.930;8.644;2023-02-02T08:40:53;6.00;99.90
7129;DHT22;3606;52.930;8.644;2023-02-02T08:43:19;6.00;99.90
7129;DHT22;3606;52.930;8.644;2023-02-02T08:45:44;6.00;99.90
7129;DHT22;3606;52.930;8.644;2023-02-02T08:48:10;6.10;99.90
7129;DHT22;3606;52.930;8.644;2023-02-02T08:50:37;6.20;99.90
7129;DHT22;3606;52.930;8.644;2023-02-02T08:53:02;6.20;99.90
7129;DHT22;3606;52.930;8.644;2023-02-02T08:55:28;6.20;99.90
7129;DHT22;3606;52.930;8.644;2023-02-02T08:57:53;6.40;99.90
7129;DHT22;3606;52.930;8.644;2023-02-02T09:00:19;6.40;99.90
7129;DHT22;3606;52.930;8.644;2023-02-02T09:02:49;6.50;99.90
7129;DHT22;3606;52.930;8.644;2023-02-02T09:05:15;6.70;99.90
7129;DHT22;3606;52.930;8.644;2023-02-02T09:07:41;6.80;99.90
7129;DHT22;3606;52.930;8.644;2023-02-02T09:10:06;6.90;99.90
7129;DHT22;3606;52.930;8.644;2023-02-02T09:12:32;6.90;99.90
7129;DHT22;3606;52.930;8.644;2023-02-02T09:14:57;6.90;99.90
7129;DHT22;3606;52.930;8.644;2023-02-02T09:17:23;7.00;99.90
7129;DHT22;3606;52.930;8.644;2023-02-02T09:19:49;7.00;95.10
7129;DHT22;3606;52.930;8.644;2023-02-02T09:22:14;7.00;97.40
7129;DHT22;3606;52.930;8.644;2023-02-02T09:24:40;7.00;99.90
7129;DHT22;3606;52.930;8.644;2023-02-02T09:27:06;7.00;97.40
7129;DHT22;3606;52.930;8.644;2023-02-02T09:29:31;7.10;80.30
7129;DHT22;3606;52.930;8.644;2023-02-02T09:31:57;7.10;49.60
7129;DHT22;3606;52.930;8.644;2023-02-02T09:34:22;7.10;94.10
7129;DHT22;3606;52.930;8.644;2023-02-02T09:36:48;7.10;99.70
7129;DHT22;3606;52.930;8.644;2023-02-02T09:39:14;7.20;65.00
7129;DHT22;3606;52.930;8.644;2023-02-02T09:41:58;7.20;79.10
7129;DHT22;3606;52.930;8.644;2023-02-02T09:44:45;7.30;25.10
7129;DHT22;3606;52.930;8.644;2023-02-02T09:52:20;7.50;1.00
7129;DHT22;3606;52.930;8.644;2023-02-02T09:54:49;7.50;1.00
7129;DHT22;3606;52.930;8.644;2023-02-02T09:57:25;7.40;1.00
7129;DHT22;3606;52.930;8.644;2023-02-02T09:59:53;7.40;11.60
7129;DHT22;3606;52.930;8.644;2023-02-02T10:02:32;7.50;27.10
7129;DHT22;3606;52.930;8.644;2023-02-02T10:05:18;7.60;1.00
7129;DHT22;3606;52.930;8.644;2023-02-02T10:07:50;7.70;1.00
7129;DHT22;3606;52.930;8.644;2023-02-02T10:10:34;7.80;1.00
7129;DHT22;3606;52.930;8.644;2023-02-02T10:13:05;7.90;1.00
7129;DHT22;3606;52.930;8.644;2023-02-02T10:15:55;8.00;1.00
7129;DHT22;3606;52.930;8.644;2023-02-02T10:18:38;8.20;1.00
7129;DHT22;3606;52.930;8.644;2023-02-02T10:21:10;8.90;1.00
7129;DHT22;3606;52.930;8.644;2023-02-02T10:23:41;9.40;99.90
7129;DHT22;3606;52.930;8.644;2023-02-02T10:26:30;10.20;1.00
7129;DHT22;3606;52.930;8.644;2023-02-02T10:37:44;13.50;1.00
7129;DHT22;3606;52.930;8.644;2023-02-02T10:40:32;13.50;1.00
7129;DHT22;3606;52.930;8.644;2023-02-02T10:45:55;13.70;1.00
7129;DHT22;3606;52.930;8.644;2023-02-02T10:48:24;13.60;1.00
7129;DHT22;3606;52.930;8.644;2023-02-02T10:50:57;12.60;1.00
7129;DHT22;3606;52.930;8.644;2023-02-02T10:53:27;11.80;1.00
7129;DHT22;3606;52.930;8.644;2023-02-02T10:58:57;11.60;1.00
7129;DHT22;3606;52.930;8.644;2023-02-02T11:01:25;11.30;99.90
7129;DHT22;3606;52.930;8.644;2023-02-02T11:03:51;11.00;99.90
7129;DHT22;3606;52.930;8.644;2023-02-02T11:06:36;10.80;1.00
7129;DHT22;3606;52.930;8.644;2023-02-02T11:09:18;10.60;57.80
7129;DHT22;3606;52.930;8.644;2023-02-02T11:11:46;10.40;99.90
7129;DHT22;3606;52.930;8.644;2023-02-02T11:14:19;10.30;1.00
7129;DHT22;3606;52.930;8.644;2023-02-02T11:17:00;10.40;1.00
7129;DHT22;3606;52.930;8.644;2023-02-02T11:19:28;10.40;99.90
7129;DHT22;3606;52.930;8.644;2023-02-02T11:21:56;10.20;99.90
7129;DHT22;3606;52.930;8.644;2023-02-02T11:32:32;10.30;1.00
7129;DHT22;3606;52.930;8.644;2023-02-02T11:37:27;10.00;1.00
7129;DHT22;3606;52.930;8.644;2023-02-02T11:39:52;9.80;1.00
7129;DHT22;3606;52.930;8.644;2023-02-02T11:42:23;9.60;99.90
7129;DHT22;3606;52.930;8.644;2023-02-02T11:44:55;9.40;99.90
7129;DHT22;3606;52.930;8.644;2023-02-02T11:47:31;9.40;99.90
7129;DHT22;3606;52.930;8.644;2023-02-02T11:49:59;9.60;1.00
7129;DHT22;3606;52.930;8.644;2023-02-02T11:52:27;9.60;99.90
7129;DHT22;3606;52.930;8.644;2023-02-02T11:54:59;9.50;1.00
7129;DHT22;3606;52.930;8.644;2023-02-02T11:57:26;9.40;1.00
7129;DHT22;3606;52.930;8.644;2023-02-02T12:00:14;9.20;99.90
7129;DHT22;3606;52.930;8.644;2023-02-02T12:02:45;9.30;99.90
7129;DHT22;3606;52.930;8.644;2023-02-02T12:07:48;9.40;99.90
7129;DHT22;3606;52.930;8.644;2023-02-02T12:10:18;9.50;8.40
7129;DHT22;3606;52.930;8.644;2023-02-02T12:15:56;9.50;99.90
7129;DHT22;3606;52.930;8.644;2023-02-02T12:23:50;9.80;1.00
7129;DHT22;3606;52.930;8.644;2023-02-02T12:26:25;9.90;99.90
7129;DHT22;3606;52.930;8.644;2023-02-02T12:34:25;10.40;99.90
7129;DHT22;3606;52.930;8.644;2023-02-02T12:56:50;11.00;99.90
7129;DHT22;3606;52.930;8.644;2023-02-02T13:07:41;9.50;99.90
7129;DHT22;3606;52.930;8.644;2023-02-02T13:12:54;9.50;99.90
7129;DHT22;3606;52.930;8.644;2023-02-02T13:15:26;9.70;1.00
7129;DHT22;3606;52.930;8.644;2023-02-02T13:17:56;9.80;99.90
7129;DHT22;3606;52.930;8.644;2023-02-02T13:23:19;9.70;99.90
7129;DHT22;3606;52.930;8.644;2023-02-02T13:26:15;9.60;1.00
7129;DHT22;3606;52.930;8.644;2023-02-02T13:34:19;9.40;1.00
7129;DHT22;3606;52.930;8.644;2023-02-02T13:36:50;9.50;23.80
7129;DHT22;3606;52.930;8.644;2023-02-02T13:39:21;9.40;99.90
7129;DHT22;3606;52.930;8.644;2023-02-02T13:41:48;9.40;99.90
7129;DHT22;3606;52.930;8.644;2023-02-02T13:44:23;9.40;99.90
7129;DHT22;3606;52.930;8.644;2023-02-02T13:47:01;9.50;99.90
7129;DHT22;3606;52.930;8.644;2023-02-02T13:49:34;9.60;1.00
7129;DHT22;3606;52.930;8.644;2023-02-02T13:52:23;9.40;1.00
7129;DHT22;3606;52.930;8.644;2023-02-02T14:00:14;9.30;1.00
7129;DHT22;3606;52.930;8.644;2023-02-02T14:03:24;9.30;99.90
7129;DHT22;3606;52.930;8.644;2023-02-02T14:06:24;9.50;99.90
7129;DHT22;3606;52.930;8.644;2023-02-02T14:09:00;9.60;99.90
7129;DHT22;3606;52.930;8.644;2023-02-02T14:11:36;9.50;99.90
7129;DHT22;3606;52.930;8.644;2023-02-02T14:14:17;9.30;99.90
7129;DHT22;3606;52.930;8.644;2023-02-02T14:17:57;9.20;99.90
7129;DHT22;3606;52.930;8.644;2023-02-02T14:19:53;9.10;99.90
7129;DHT22;3606;52.930;8.644;2023-02-02T14:25:03;8.90;1.00
7129;DHT22;3606;52.930;8.644;2023-02-02T14:27:57;8.70;1.00
7129;DHT22;3606;52.930;8.644;2023-02-02T14:30:32;8.50;1.00
7129;DHT22;3606;52.930;8.644;2023-02-02T14:38:11;8.30;99.90
7129;DHT22;3606;52.930;8.644;2023-02-02T14:44:06;8.30;1.00
7129;DHT22;3606;52.930;8.644;2023-02-02T14:46:39;8.20;1.00
7129;DHT22;3606;52.930;8.644;2023-02-02T14:49:14;8.20;99.90
7129;DHT22;3606;52.930;8.644;2023-02-02T14:51:56;8.10;99.90
7129;DHT22;3606;52.930;8.644;2023-02-02T14:54:34;8.10;99.90
7129;DHT22;3606;52.930;8.644;2023-02-02T14:57:04;8.00;99.90
7129;DHT22;3606;52.930;8.644;2023-02-02T14:59:34;8.00;99.90
7129;DHT22;3606;52.930;8.644;2023-02-02T15:02:24;7.90;1.00
7129;DHT22;3606;52.930;8.644;2023-02-02T15:08:24;8.00;1.00
7129;DHT22;3606;52.930;8.644;2023-02-02T15:11:00;7.90;1.00
7129;DHT22;3606;52.930;8.644;2023-02-02T15:13:30;8.00;93.80
7129;DHT22;3606;52.930;8.644;2023-02-02T15:16:13;8.00;1.00
7129;DHT22;3606;52.930;8.644;2023-02-02T15:18:44;7.90;1.00
7129;DHT22;3606;52.930;8.644;2023-02-02T15:21:15;7.80;99.90
7129;DHT22;3606;52.930;8.644;2023-02-02T15:23:46;7.80;99.90
7129;DHT22;3606;52.930;8.644;2023-02-02T15:26:14;7.80;1.00
7129;DHT22;3606;52.930;8.644;2023-02-02T15:31:21;7.60;99.90
7129;DHT22;3606;52.930;8.644;2023-02-02T15:33:54;7.60;99.90
7129;DHT22;3606;52.930;8.644;2023-02-02T15:36:26;7.50;99.90
7129;DHT22;3606;52.930;8.644;2023-02-02T15:38:57;7.40;99.90
7129;DHT22;3606;52.930;8.644;2023-02-02T15:41:26;7.40;1.00
7129;DHT22;3606;52.930;8.644;2023-02-02T15:43:53;7.30;99.90
7129;DHT22;3606;52.930;8.644;2023-02-02T15:46:25;7.30;99.90
7129;DHT22;3606;52.930;8.644;2023-02-02T15:49:30;7.20;1.00
7129;DHT22;3606;52.930;8.644;2023-02-02T15:51:58;7.20;1.00
7129;DHT22;3606;52.930;8.644;2023-02-02T15:54:33;7.20;1.00
7129;DHT22;3606;52.930;8.644;2023-02-02T15:57:00;7.10;1.00
7129;DHT22;3606;52.930;8.644;2023-02-02T15:59:38;7.10;1.00
7129;DHT22;3606;52.930;8.644;2023-02-02T16:04:35;7.00;1.00
7129;DHT22;3606;52.930;8.644;2023-02-02T16:07:01;6.90;60.40
7129;DHT22;3606;52.930;8.644;2023-02-02T16:09:32;6.90;99.90
7129;DHT22;3606;52.930;8.644;2023-02-02T16:11:58;6.80;99.90
7129;DHT22;3606;52.930;8.644;2023-02-02T16:14:25;6.80;99.90
7129;DHT22;3606;52.930;8.644;2023-02-02T16:16:51;6.80;99.90
7129;DHT22;3606;52.930;8.644;2023-02-02T16:19:24;6.80;99.90
7129;DHT22;3606;52.930;8.644;2023-02-02T16:22:03;6.60;99.90
7129;DHT22;3606;52.930;8.644;2023-02-02T16:24:33;6.60;99.90
7129;DHT22;3606;52.930;8.644;2023-02-02T16:27:04;6.50;99.90
7129;DHT22;3606;52.930;8.644;2023-02-02T16:29:31;6.40;99.90
7129;DHT22;3606;52.930;8.644;2023-02-02T16:31:57;6.30;99.90
7129;DHT22;3606;52.930;8.644;2023-02-02T16:39:37;6.10;99.90
7129;DHT22;3606;52.930;8.644;2023-02-02T16:42:24;6.10;99.90
7129;DHT22;3606;52.930;8.644;2023-02-02T16:44:50;6.10;99.90
7129;DHT22;3606;52.930;8.644;2023-02-02T16:50:43;6.00;99.90
7129;DHT22;3606;52.930;8.644;2023-02-02T16:53:04;6.00;99.90
7129;DHT22;3606;52.930;8.644;2023-02-02T16:55:31;5.90;99.90
7129;DHT22;3606;52.930;8.644;2023-02-02T16:57:58;5.80;99.90
7129;DHT22;3606;52.930;8.644;2023-02-02T17:00:27;6.00;99.90
7129;DHT22;3606;52.930;8.644;2023-02-02T17:03:06;5.90;99.90
7129;DHT22;3606;52.930;8.644;2023-02-02T17:05:46;5.90;99.90
7129;DHT22;3606;52.930;8.644;2023-02-02T17:08:12;5.80;99.90
7129;DHT22;3606;52.930;8.644;2023-02-02T17:10:42;5.80;99.90
7129;DHT22;3606;52.930;8.644;2023-02-02T17:15:57;5.80;99.90
7129;DHT22;3606;52.930;8.644;2023-02-02T17:18:23;5.80;99.90
7129;DHT22;3606;52.930;8.644;2023-02-02T17:20:49;5.80;99.90
7129;DHT22;3606;52.930;8.644;2023-02-02T17:23:23;5.80;99.90
7129;DHT22;3606;52.930;8.644;2023-02-02T17:25:49;5.80;99.90
7129;DHT22;3606;52.930;8.644;2023-02-02T17:28:20;5.80;99.90
7129;DHT22;3606;52.930;8.644;2023-02-02T17:30:49;5.70;99.90
7129;DHT22;3606;52.930;8.644;2023-02-02T17:33:17;5.70;99.90
7129;DHT22;3606;52.930;8.644;2023-02-02T17:35:44;5.70;99.90
7129;DHT22;3606;52.930;8.644;2023-02-02T17:38:10;5.60;99.90
7129;DHT22;3606;52.930;8.644;2023-02-02T17:40:36;5.60;99.90
7129;DHT22;3606;52.930;8.644;2023-02-02T17:43:01;5.70;99.90
7129;DHT22;3606;52.930;8.644;2023-02-02T17:45:30;5.60;99.90
7129;DHT22;3606;52.930;8.644;2023-02-02T17:47:56;5.60;99.90
7129;DHT22;3606;52.930;8.644;2023-02-02T17:50:21;5.60;99.90
7129;DHT22;3606;52.930;8.644;2023-02-02T17:52:48;5.70;99.90
7129;DHT22;3606;52.930;8.644;2023-02-02T17:57:50;5.60;99.90
7129;DHT22;3606;52.930;8.644;2023-02-02T18:00:17;5.60;99.90
7129;DHT22;3606;52.930;8.644;2023-02-02T18:02:43;5.70;99.90
7129;DHT22;3606;52.930;8.644;2023-02-02T18:05:10;5.70;99.90
7129;DHT22;3606;52.930;8.644;2023-02-02T18:07:36;5.60;99.90
7129;DHT22;3606;52.930;8.644;2023-02-02T18:10:03;5.60;99.90
7129;DHT22;3606;52.930;8.644;2023-02-02T18:12:29;5.60;99.90
7129;DHT22;3606;52.930;8.644;2023-02-02T18:14:54;5.70;99.90
7129;DHT22;3606;52.930;8.644;2023-02-02T18:17:20;5.60;99.90
7129;DHT22;3606;52.930;8.644;2023-02-02T18:19:46;5.60;99.90
7129;DHT22;3606;52.930;8.644;2023-02-02T18:22:16;5.70;99.90
7129;DHT22;3606;52.930;8.644;2023-02-02T18:24:41;5.70;99.90
7129;DHT22;3606;52.930;8.644;2023-02-02T18:27:07;5.70;99.90
7129;DHT22;3606;52.930;8.644;2023-02-02T18:29:33;5.70;99.90
7129;DHT22;3606;52.930;8.644;2023-02-02T18:31:59;5.70;99.90
7129;DHT22;3606;52.930;8.644;2023-02-02T18:34:32;5.60;99.90
7129;DHT22;3606;52.930;8.644;2023-02-02T18:36:58;5.60;99.90
7129;DHT22;3606;52.930;8.644;2023-02-02T18:39:23;5.60;99.90
7129;DHT22;3606;52.930;8.644;2023-02-02T18:41:49;5.60;99.90
7129;DHT22;3606;52.930;8.644;2023-02-02T18:44:14;5.70;99.90
7129;DHT22;3606;52.930;8.644;2023-02-02T18:46:40;5.70;99.90
7129;DHT22;3606;52.930;8.644;2023-02-02T18:49:06;5.70;99.90
7129;DHT22;3606;52.930;8.644;2023-02-02T18:51:31;5.70;99.90
7129;DHT22;3606;52.930;8.644;2023-02-02T18:53:57;5.70;99.90
7129;DHT22;3606;52.930;8.644;2023-02-02T18:56:26;5.70;99.90
7129;DHT22;3606;52.930;8.644;2023-02-02T18:58:52;5.70;99.90
7129;DHT22;3606;52.930;8.644;2023-02-02T19:01:18;5.70;99.90
7129;DHT22;3606;52.930;8.644;2023-02-02T19:03:49;5.60;99.90
7129;DHT22;3606;52.930;8.644;2023-02-02T19:06:15;5.70;99.90
7129;DHT22;3606;52.930;8.644;2023-02-02T19:08:59;5.70;99.90
7129;DHT22;3606;52.930;8.644;2023-02-02T19:14:00;5.70;99.90
7129;DHT22;3606;52.930;8.644;2023-02-02T19:16:28;5.70;99.90
7129;DHT22;3606;52.930;8.644;2023-02-02T19:18:59;5.70;99.90